createdAt,value
2018-02-24T00:00:36.238Z,102406.22
2018-02-24T00:03:02.104Z,102403.88
2018-02-24T00:05:28.134Z,102414.73
2018-02-24T00:07:54.116Z,102409.48
2018-02-24T00:10:19.986Z,102409.66
2018-02-24T00:12:45.859Z,102409.89
2018-02-24T00:15:12.790Z,102401.48
2018-02-24T00:17:38.785Z,102399.75
2018-02-24T00:20:04.787Z,102406.16
2018-02-24T00:22:41.822Z,102405.30
2018-02-24T00:25:07.692Z,102408.95
2018-02-24T00:27:33.558Z,102405.03
2018-02-24T00:29:59.626Z,102403.40
2018-02-24T00:32:25.561Z,102411.42
2018-02-24T00:34:51.421Z,102410.73
2018-02-24T00:37:17.328Z,102414.30
2018-02-24T00:39:43.172Z,102412.03
2018-02-24T00:42:09.145Z,102408.50
2018-02-24T00:44:35.112Z,102408.37
2018-02-24T00:47:01.035Z,102406.03
2018-02-24T00:49:26.909Z,102397.00
2018-02-24T00:51:52.823Z,102390.09
2018-02-24T00:54:18.830Z,102407.06
2018-02-24T00:56:44.916Z,102400.61
2018-02-24T00:59:10.853Z,102396.92
2018-02-24T01:01:36.749Z,102389.86
2018-02-24T01:04:02.642Z,102392.95
2018-02-24T01:06:28.785Z,102397.84
2018-02-24T01:08:54.740Z,102395.64
2018-02-24T01:11:20.610Z,102386.68
2018-02-24T01:13:46.518Z,102385.73
2018-02-24T01:16:12.404Z,102385.79
2018-02-24T01:18:38.389Z,102391.94
2018-02-24T01:21:04.426Z,102382.34
2018-02-24T01:23:30.256Z,102380.97
2018-02-24T01:25:56.198Z,102388.84
2018-02-24T01:28:23.513Z,102384.25
2018-02-24T01:30:49.497Z,102384.75
2018-02-24T01:33:15.431Z,102389.67
2018-02-24T01:35:41.388Z,102382.70
2018-02-24T01:38:07.280Z,102377.61
2018-02-24T01:40:33.132Z,102363.41
2018-02-24T01:42:59.142Z,102372.87
2018-02-24T01:45:25.086Z,102376.94
2018-02-24T01:47:50.948Z,102368.41
2018-02-24T01:50:16.869Z,102376.69
2018-02-24T01:52:42.745Z,102385.38
2018-02-24T01:55:08.726Z,102378.58
2018-02-24T01:57:34.769Z,102378.85
2018-02-24T02:00:00.642Z,102378.38
2018-02-24T02:02:26.577Z,102379.27
2018-02-24T02:04:52.793Z,102379.36
2018-02-24T02:07:18.765Z,102377.53
2018-02-24T02:09:44.713Z,102377.33
2018-02-24T02:12:10.647Z,102379.22
2018-02-24T02:14:36.504Z,102368.08
2018-02-24T02:17:02.360Z,102373.23
2018-02-24T02:19:28.397Z,102378.77
2018-02-24T02:21:54.324Z,102364.09
2018-02-24T02:24:20.185Z,102376.69
2018-02-24T02:26:46.105Z,102361.41
2018-02-24T02:29:11.948Z,102364.30
2018-02-24T02:31:37.927Z,102365.58
2018-02-24T02:34:03.931Z,102365.00
2018-02-24T02:36:29.823Z,102361.86
2018-02-24T02:38:55.698Z,102359.05
2018-02-24T02:41:21.626Z,102364.16
2018-02-24T02:43:47.620Z,102365.64
2018-02-24T02:46:13.578Z,102385.87
2018-02-24T02:48:39.507Z,102384.94
2018-02-24T02:51:05.387Z,102383.19
2018-02-24T02:53:31.291Z,102387.56
2018-02-24T02:55:57.304Z,102383.99
2018-02-24T02:58:23.258Z,102384.20
2018-02-24T03:00:49.130Z,102373.08
2018-02-24T03:03:15.058Z,102382.08
2018-02-24T03:05:40.974Z,102386.55
2018-02-24T03:08:06.983Z,102377.16
2018-02-24T03:10:33.318Z,102380.42
2018-02-24T03:12:59.206Z,102389.08
2018-02-24T03:15:25.066Z,102394.88
2018-02-24T03:17:50.986Z,102388.50
2018-02-24T03:20:16.986Z,102376.92
2018-02-24T03:22:42.938Z,102377.83
2018-02-24T03:25:08.902Z,102378.41
2018-02-24T03:27:34.752Z,102384.59
2018-02-24T03:30:00.638Z,102377.81
2018-02-24T03:32:26.694Z,102378.45
2018-02-24T03:34:52.640Z,102379.80
2018-02-24T03:37:18.597Z,102381.77
2018-02-24T03:39:44.520Z,102395.48
2018-02-24T03:42:10.426Z,102385.48
2018-02-24T03:44:36.420Z,102388.30
2018-02-24T03:47:02.401Z,102396.59
2018-02-24T03:49:28.342Z,102383.42
2018-02-24T03:51:54.226Z,102394.60
2018-02-24T03:54:20.532Z,102398.36
2018-02-24T03:56:46.551Z,102410.24
2018-02-24T03:59:12.538Z,102409.23
2018-02-24T04:01:38.456Z,102403.88
2018-02-24T04:04:04.339Z,102403.78
2018-02-24T04:06:30.293Z,102406.30
2018-02-24T04:08:56.338Z,102406.54
2018-02-24T04:11:22.291Z,102403.30
2018-02-24T04:13:48.182Z,102400.53
2018-02-24T04:16:14.290Z,102399.15
2018-02-24T04:18:40.188Z,102410.05
2018-02-24T04:21:06.188Z,102406.48
2018-02-24T04:23:32.570Z,102411.78
2018-02-24T04:25:58.413Z,102407.17
2018-02-24T04:28:24.281Z,102408.25
2018-02-24T04:30:50.252Z,102409.80
2018-02-24T04:33:16.243Z,102416.73
2018-02-24T04:35:42.169Z,102418.73
2018-02-24T04:38:08.415Z,102412.23
2018-02-24T04:40:34.281Z,102412.75
2018-02-24T04:43:00.171Z,102414.57
2018-02-24T04:45:26.197Z,102414.17
2018-02-24T04:47:52.162Z,102418.08
2018-02-24T04:50:18.054Z,102419.51
2018-02-24T04:52:43.989Z,102419.17
2018-02-24T04:55:09.862Z,102420.52
2018-02-24T04:57:35.880Z,102419.58
2018-02-24T05:00:01.866Z,102416.44
2018-02-24T05:02:27.745Z,102423.45
2018-02-24T05:04:53.596Z,102435.16
2018-02-24T05:07:19.513Z,102432.02
2018-02-24T05:09:45.508Z,102450.10
2018-02-24T05:12:11.476Z,102449.34
2018-02-24T05:14:37.411Z,102451.59
2018-02-24T05:17:03.281Z,102447.73
2018-02-24T05:19:29.157Z,102446.48
2018-02-24T05:21:55.575Z,102448.84
2018-02-24T05:24:21.502Z,102451.52
2018-02-24T05:26:47.414Z,102448.50
2018-02-24T05:29:13.310Z,102447.83
2018-02-24T05:31:39.187Z,102445.97
2018-02-24T05:34:05.236Z,102452.19
2018-02-24T05:36:31.238Z,102448.89
2018-02-24T05:38:57.121Z,102450.37
2018-02-24T05:41:23.017Z,102441.30
2018-02-24T05:43:48.942Z,102443.65
2018-02-24T05:46:14.915Z,102446.59
2018-02-24T05:48:40.852Z,102448.64
2018-02-24T05:51:06.772Z,102450.02
2018-02-24T05:53:32.637Z,102448.98
2018-02-24T05:55:58.592Z,102451.48
2018-02-24T05:58:24.974Z,102457.71
2018-02-24T06:00:51.489Z,102458.81
2018-02-24T06:03:17.407Z,102456.82
2018-02-24T06:05:43.417Z,102460.83
2018-02-24T06:08:09.487Z,102465.05
2018-02-24T06:10:35.452Z,102474.35
2018-02-24T06:13:01.592Z,102470.38
2018-02-24T06:15:27.467Z,102470.69
2018-02-24T06:17:53.340Z,102476.25
2018-02-24T06:20:19.276Z,102485.54
2018-02-24T06:22:45.303Z,102484.70
2018-02-24T06:25:11.261Z,102490.42
2018-02-24T06:27:37.205Z,102488.63
2018-02-24T06:30:03.077Z,102490.63
2018-02-24T06:32:28.975Z,102492.67
2018-02-24T06:34:55.072Z,102494.63
2018-02-24T06:37:21.071Z,102488.09
2018-02-24T06:39:46.983Z,102493.33
2018-02-24T06:42:12.904Z,102503.41
2018-02-24T06:44:38.760Z,102507.58
2018-02-24T06:47:04.814Z,102506.30
2018-02-24T06:49:30.802Z,102513.30
2018-02-24T06:51:56.722Z,102509.17
2018-02-24T06:54:22.598Z,102511.95
2018-02-24T06:56:48.862Z,102519.05
2018-02-24T06:59:14.868Z,102533.23
2018-02-24T07:01:40.820Z,102524.31
2018-02-24T07:04:06.732Z,102534.15
2018-02-24T07:06:32.705Z,102544.03
2018-02-24T07:08:58.614Z,102550.23
2018-02-24T07:11:24.805Z,102546.71
2018-02-24T07:13:50.740Z,102544.48
2018-02-24T07:16:16.651Z,102542.63
2018-02-24T07:18:42.581Z,102562.89
2018-02-24T07:21:08.494Z,102551.80
2018-02-24T07:23:34.514Z,102551.39
2018-02-24T07:26:00.555Z,102559.80
2018-02-24T07:28:26.409Z,102558.50
2018-02-24T07:30:52.375Z,102559.38
2018-02-24T07:33:18.597Z,102556.85
2018-02-24T07:35:44.596Z,102559.30
2018-02-24T07:38:10.550Z,102559.52
2018-02-24T07:40:37.102Z,102554.66
2018-02-24T07:43:02.987Z,102554.58
2018-02-24T07:45:28.866Z,102559.88
2018-02-24T07:47:54.878Z,102558.76
2018-02-24T07:50:20.825Z,102544.31
2018-02-24T07:52:46.745Z,102552.70
2018-02-24T07:55:12.702Z,102551.28
2018-02-24T07:57:38.561Z,102551.31
2018-02-24T08:00:04.577Z,102547.43
2018-02-24T08:02:30.593Z,102558.19
2018-02-24T08:04:56.462Z,102562.13
2018-02-24T08:07:22.337Z,102562.41
2018-02-24T08:09:48.325Z,102564.34
2018-02-24T08:12:14.318Z,102568.35
2018-02-24T08:14:40.296Z,102567.38
2018-02-24T08:17:06.246Z,102564.80
2018-02-24T08:19:32.131Z,102564.14
2018-02-24T08:21:58.035Z,102571.05
2018-02-24T08:24:24.061Z,102568.02
2018-02-24T08:26:50.007Z,102572.61
2018-02-24T08:29:15.886Z,102565.43
2018-02-24T08:31:42.231Z,102583.48
2018-02-24T08:34:08.113Z,102580.83
2018-02-24T08:36:34.097Z,102581.56
2018-02-24T08:39:00.072Z,102577.72
2018-02-24T08:41:26.017Z,102586.13
2018-02-24T08:43:51.893Z,102578.37
2018-02-24T08:46:17.812Z,102574.83
2018-02-24T08:48:43.799Z,102572.84
2018-02-24T08:51:09.786Z,102574.08
2018-02-24T08:53:35.760Z,102574.20
2018-02-24T08:56:01.641Z,102577.90
2018-02-24T08:58:27.552Z,102578.59
2018-02-24T09:00:53.592Z,102575.44
2018-02-24T09:03:19.572Z,102566.77
2018-02-24T09:05:49.590Z,102567.34
2018-02-24T09:08:25.524Z,102571.12
2018-02-24T09:10:51.430Z,102566.47
2018-02-24T09:13:17.460Z,102560.72
2018-02-24T09:15:43.526Z,102560.11
2018-02-24T09:18:09.409Z,102566.11
2018-02-24T09:20:35.302Z,102572.30
2018-02-24T09:23:01.230Z,102582.88
2018-02-24T09:25:27.314Z,102574.17
2018-02-24T09:27:53.242Z,102572.77
2018-02-24T09:30:19.202Z,102575.44
2018-02-24T09:32:45.108Z,102580.17
2018-02-24T09:35:10.999Z,102576.39
2018-02-24T09:37:37.091Z,102559.26
2018-02-24T09:40:02.974Z,102579.81
2018-02-24T09:42:28.856Z,102582.28
2018-02-24T09:44:54.801Z,102595.95
2018-02-24T09:47:20.677Z,102584.04
2018-02-24T09:49:46.690Z,102586.03
2018-02-24T09:52:12.613Z,102582.19
2018-02-24T09:54:38.495Z,102581.04
2018-02-24T09:57:04.392Z,102581.14
2018-02-24T09:59:30.380Z,102578.27
2018-02-24T10:01:56.428Z,102576.74
2018-02-24T10:04:22.326Z,102574.58
2018-02-24T10:06:48.263Z,102573.70
2018-02-24T10:09:14.144Z,102569.06
2018-02-24T10:11:40.053Z,102568.61
2018-02-24T10:14:06.086Z,102570.66
2018-02-24T10:16:31.974Z,102576.72
2018-02-24T10:18:57.897Z,102563.47
2018-02-24T10:21:23.833Z,102569.61
2018-02-24T10:23:49.758Z,102579.22
2018-02-24T10:26:15.757Z,102575.97
2018-02-24T10:28:41.682Z,102577.36
2018-02-24T10:31:07.681Z,102572.99
2018-02-24T10:33:33.569Z,102581.70
2018-02-24T10:35:59.539Z,102572.55
2018-02-24T10:38:25.625Z,102582.97
2018-02-24T10:40:51.510Z,102588.05
2018-02-24T10:43:17.450Z,102584.10
2018-02-24T10:45:43.337Z,102574.39
2018-02-24T10:48:09.264Z,102576.60
2018-02-24T10:50:35.321Z,102577.10
2018-02-24T10:53:01.210Z,102573.25
2018-02-24T10:55:27.143Z,102576.73
2018-02-24T10:57:53.122Z,102572.72
2018-02-24T11:00:19.087Z,102575.42
2018-02-24T11:02:45.127Z,102559.34
2018-02-24T11:05:11.082Z,102572.13
2018-02-24T11:07:36.946Z,102570.72
2018-02-24T11:10:02.822Z,102577.75
2018-02-24T11:12:29.165Z,102574.96
2018-02-24T11:14:55.155Z,102575.14
2018-02-24T11:17:21.017Z,102572.39
2018-02-24T11:19:46.958Z,102580.59
2018-02-24T11:22:12.834Z,102573.48
2018-02-24T11:24:38.778Z,102566.18
2018-02-24T11:27:04.855Z,102555.68
2018-02-24T11:29:30.740Z,102554.92
2018-02-24T11:31:56.638Z,102557.77
2018-02-24T11:34:22.538Z,102553.45
2018-02-24T11:36:48.462Z,102557.81
2018-02-24T11:39:14.505Z,102557.75
2018-02-24T11:41:40.465Z,102559.25
2018-02-24T11:44:06.492Z,102561.65
2018-02-24T11:46:32.408Z,102558.24
2018-02-24T11:48:58.459Z,102559.61
2018-02-24T11:51:28.557Z,102554.31
2018-02-24T11:53:55.519Z,102550.91
2018-02-24T11:56:21.614Z,102558.72
2018-02-24T11:58:47.519Z,102548.14
2018-02-24T12:01:13.535Z,102554.94
2018-02-24T12:03:39.658Z,102563.36
2018-02-24T12:06:05.554Z,102557.41
2018-02-24T12:08:31.448Z,102565.52
2018-02-24T12:10:57.399Z,102551.89
2018-02-24T12:13:23.338Z,102552.53
2018-02-24T12:15:49.795Z,102563.44
2018-02-24T12:18:15.707Z,102568.55
2018-02-24T12:20:41.596Z,102560.27
2018-02-24T12:23:07.453Z,102555.73
2018-02-24T12:25:33.526Z,102561.27
2018-02-24T12:27:59.535Z,102571.25
2018-02-24T12:30:25.427Z,102572.66
2018-02-24T12:32:51.357Z,102563.41
2018-02-24T12:35:17.583Z,102558.85
2018-02-24T12:37:44.050Z,102566.95
2018-02-24T12:40:10.151Z,102556.64
2018-02-24T12:42:36.052Z,102562.77
2018-02-24T12:45:01.914Z,102561.52
2018-02-24T12:47:28.237Z,102564.83
2018-02-24T12:49:54.201Z,102577.37
2018-02-24T12:52:20.205Z,102569.65
2018-02-24T12:54:46.265Z,102577.14
2018-02-24T12:57:12.158Z,102563.33
2018-02-24T12:59:38.030Z,102572.70
2018-02-24T13:02:05.525Z,102562.69
2018-02-24T13:04:32.186Z,102565.83
2018-02-24T13:06:58.082Z,102566.83
2018-02-24T13:09:25.047Z,102561.33
2018-02-24T13:11:50.938Z,102560.41
2018-02-24T13:14:16.861Z,102575.94
2018-02-24T13:16:43.223Z,102581.45
2018-02-24T13:19:09.114Z,102581.39
2018-02-24T13:21:34.985Z,102586.86
2018-02-24T13:24:00.885Z,102572.17
2018-02-24T13:26:26.796Z,102583.33
2018-02-24T13:28:52.778Z,102586.10
2018-02-24T13:31:18.716Z,102581.94
2018-02-24T13:33:44.597Z,102579.88
2018-02-24T13:36:10.465Z,102588.98
2018-02-24T13:38:37.383Z,102595.36
2018-02-24T13:41:03.392Z,102592.95
2018-02-24T13:43:29.277Z,102595.00
2018-02-24T13:45:55.234Z,102598.64
2018-02-24T13:48:21.135Z,102599.19
2018-02-24T13:50:48.503Z,102594.59
2018-02-24T13:53:15.159Z,102597.05
2018-02-24T13:55:41.034Z,102595.98
2018-02-24T13:58:06.912Z,102600.36
2018-02-24T14:00:32.839Z,102595.75
2018-02-24T14:02:58.798Z,102590.30
2018-02-24T14:05:24.785Z,102595.96
2018-02-24T14:07:50.703Z,102600.57
2018-02-24T14:10:16.548Z,102602.23
2018-02-24T14:12:42.511Z,102601.27
2018-02-24T14:15:08.746Z,102600.45
2018-02-24T14:17:35.284Z,102603.73
2018-02-24T14:20:01.223Z,102596.25
2018-02-24T14:22:27.137Z,102605.75
2018-02-24T14:24:53.021Z,102603.45
2018-02-24T14:27:18.945Z,102611.58
2018-02-24T14:29:44.976Z,102608.58
2018-02-24T14:32:10.881Z,102602.80
2018-02-24T14:34:36.751Z,102601.67
2018-02-24T14:37:02.706Z,102615.87
2018-02-24T14:39:29.357Z,102604.59
2018-02-24T14:41:55.336Z,102618.53
2018-02-24T14:44:21.253Z,102609.20
2018-02-24T14:46:47.124Z,102604.47
2018-02-24T14:49:13.504Z,102606.36
2018-02-24T14:51:39.405Z,102601.78
2018-02-24T14:54:06.074Z,102607.55
2018-02-24T14:56:31.965Z,102611.58
2018-02-24T14:58:57.917Z,102611.83
2018-02-24T15:01:23.793Z,102603.73
2018-02-24T15:03:49.706Z,102597.99
2018-02-24T15:06:15.760Z,102618.83
2018-02-24T15:08:41.730Z,102626.27
2018-02-24T15:11:07.598Z,102605.43
2018-02-24T15:13:33.506Z,102615.48
2018-02-24T15:15:59.420Z,102613.56
2018-02-24T15:18:25.625Z,102610.28
2018-02-24T15:20:51.572Z,102621.70
2018-02-24T15:23:17.459Z,102621.51
2018-02-24T15:25:43.423Z,102624.85
2018-02-24T15:28:09.516Z,102615.97
2018-02-24T15:30:35.530Z,102610.05
2018-02-24T15:33:01.413Z,102619.30
2018-02-24T15:35:27.333Z,102629.87
2018-02-24T15:37:53.189Z,102626.88
2018-02-24T15:40:19.097Z,102624.34
2018-02-24T15:42:45.174Z,102631.16
2018-02-24T15:45:11.053Z,102636.59
2018-02-24T15:47:36.916Z,102632.36
2018-02-24T15:50:02.913Z,102635.91
2018-02-24T15:52:29.670Z,102633.41
2018-02-24T15:54:55.684Z,102631.72
2018-02-24T15:57:21.596Z,102640.41
2018-02-24T15:59:47.457Z,102643.50
2018-02-24T16:02:13.419Z,102640.34
2018-02-24T16:04:39.728Z,102638.64
2018-02-24T16:07:05.721Z,102649.67
2018-02-24T16:09:31.597Z,102650.37
2018-02-24T16:11:57.522Z,102649.02
2018-02-24T16:14:23.435Z,102659.37
2018-02-24T16:16:49.310Z,102647.47
2018-02-24T16:19:15.408Z,102662.77
2018-02-24T16:21:41.257Z,102657.22
2018-02-24T16:24:07.126Z,102664.76
2018-02-24T16:26:33.441Z,102670.67
2018-02-24T16:28:59.341Z,102674.45
2018-02-24T16:31:25.317Z,102669.11
2018-02-24T16:33:51.220Z,102679.73
2018-02-24T16:36:17.074Z,102682.81
2018-02-24T16:38:43.323Z,102669.91
2018-02-24T16:41:09.255Z,102674.98
2018-02-24T16:43:35.262Z,102686.73
2018-02-24T16:46:01.117Z,102697.23
2018-02-24T16:48:27.070Z,102692.28
2018-02-24T16:50:52.985Z,102697.00
2018-02-24T16:53:18.855Z,102692.88
2018-02-24T16:55:44.928Z,102696.41
2018-02-24T16:58:10.814Z,102701.72
2018-02-24T17:00:36.702Z,102703.63
2018-02-24T17:03:02.707Z,102707.94
2018-02-24T17:05:28.586Z,102710.92
2018-02-24T17:07:54.596Z,102711.30
2018-02-24T17:10:20.517Z,102722.05
2018-02-24T17:12:47.467Z,102722.06
2018-02-24T17:15:13.394Z,102725.16
2018-02-24T17:17:39.319Z,102721.83
2018-02-24T17:20:05.346Z,102725.97
2018-02-24T17:22:31.214Z,102730.87
2018-02-24T17:24:57.635Z,102728.05
2018-02-24T17:27:23.598Z,102732.86
2018-02-24T17:29:49.501Z,102732.78
2018-02-24T17:32:15.570Z,102735.47
2018-02-24T17:34:41.460Z,102740.14
2018-02-24T17:37:07.355Z,102738.30
2018-02-24T17:39:33.326Z,102735.28
2018-02-24T17:41:59.206Z,102739.70
2018-02-24T17:44:25.983Z,102743.44
2018-02-24T17:46:51.889Z,102737.16
2018-02-24T17:49:17.742Z,102740.27
2018-02-24T17:51:43.654Z,102745.00
2018-02-24T17:54:10.411Z,102745.53
2018-02-24T17:56:36.564Z,102750.02
2018-02-24T17:59:02.450Z,102741.91
2018-02-24T18:01:28.430Z,102744.43
2018-02-24T18:03:54.426Z,102743.89
2018-02-24T18:06:20.350Z,102755.27
2018-02-24T18:08:46.380Z,102754.59
2018-02-24T18:11:12.254Z,102748.06
2018-02-24T18:13:38.140Z,102754.88
2018-02-24T18:16:04.144Z,102752.14
2018-02-24T18:18:30.032Z,102752.67
2018-02-24T18:20:56.095Z,102750.81
2018-02-24T18:23:22.029Z,102750.25
2018-02-24T18:25:47.914Z,102745.81
2018-02-24T18:28:14.282Z,102747.10
2018-02-24T18:30:40.271Z,102745.09
2018-02-24T18:33:06.294Z,102750.36
2018-02-24T18:35:32.198Z,102745.27
2018-02-24T18:37:58.124Z,102749.63
2018-02-24T18:40:24.033Z,102759.76
2018-02-24T18:42:49.890Z,102757.16
2018-02-24T18:45:16.159Z,102763.95
2018-02-24T18:47:42.074Z,102769.23
2018-02-24T18:50:07.950Z,102772.02
2018-02-24T18:52:33.933Z,102769.28
2018-02-24T18:55:00.866Z,102772.48
2018-02-24T18:57:26.842Z,102773.64
2018-02-24T18:59:53.558Z,102782.42
2018-02-24T19:02:19.487Z,102784.89
2018-02-24T19:04:45.433Z,102784.05
2018-02-24T19:07:11.390Z,102772.66
2018-02-24T19:09:37.377Z,102781.94
2018-02-24T19:12:03.253Z,102788.02
2018-02-24T19:14:29.235Z,102788.19
2018-02-24T19:16:55.175Z,102793.56
2018-02-24T19:19:21.071Z,102791.26
2018-02-24T19:21:47.135Z,102795.77
2018-02-24T19:24:13.063Z,102796.83
2018-02-24T19:26:39.010Z,102802.47
2018-02-24T19:29:05.032Z,102794.19
2018-02-24T19:31:30.942Z,102799.50
2018-02-24T19:33:56.942Z,102793.71
2018-02-24T19:36:23.710Z,102798.41
2018-02-24T19:38:49.693Z,102790.97
2018-02-24T19:41:15.663Z,102796.67
2018-02-24T19:43:41.604Z,102796.11
2018-02-24T19:46:07.618Z,102798.89
2018-02-24T19:48:33.507Z,102797.81
2018-02-24T19:50:59.442Z,102800.05
2018-02-24T19:53:25.365Z,102804.62
2018-02-24T19:55:51.250Z,102802.80
2018-02-24T19:58:17.302Z,102806.19
2018-02-24T20:00:43.182Z,102798.77
2018-02-24T20:03:09.081Z,102804.93
2018-02-24T20:05:35.104Z,102807.29
2018-02-24T20:08:01.030Z,102809.80
2018-02-24T20:10:27.039Z,102803.72
2018-02-24T20:12:52.953Z,102811.81
2018-02-24T20:15:18.808Z,102813.91
2018-02-24T20:17:44.785Z,102817.40
2018-02-24T20:20:10.719Z,102800.12
2018-02-24T20:22:36.786Z,102805.09
2018-02-24T20:25:02.692Z,102802.60
2018-02-24T20:27:28.617Z,102817.70
2018-02-24T20:29:54.608Z,102824.44
2018-02-24T20:32:20.502Z,102819.63
2018-02-24T20:34:46.533Z,102815.23
2018-02-24T20:37:12.418Z,102817.23
2018-02-24T20:39:38.302Z,102811.53
2018-02-24T20:42:04.274Z,102823.79
2018-02-24T20:44:30.141Z,102821.31
2018-02-24T20:46:56.141Z,102824.61
2018-02-24T20:49:22.054Z,102822.59
2018-02-24T20:51:47.947Z,102823.48
2018-02-24T20:54:13.862Z,102823.63
2018-02-24T20:56:39.797Z,102822.96
2018-02-24T20:59:05.822Z,102825.02
2018-02-24T21:01:31.758Z,102827.91
2018-02-24T21:03:57.699Z,102830.72
2018-02-24T21:06:23.653Z,102831.52
2018-02-24T21:08:49.531Z,102836.23
2018-02-24T21:11:15.609Z,102844.91
2018-02-24T21:13:41.479Z,102847.61
2018-02-24T21:16:07.351Z,102845.61
2018-02-24T21:18:33.280Z,102844.95
2018-02-24T21:20:59.142Z,102851.31
2018-02-24T21:23:25.149Z,102858.78
2018-02-24T21:25:51.106Z,102855.53
2018-02-24T21:28:17.014Z,102854.46
2018-02-24T21:30:43.087Z,102857.40
2018-02-24T21:33:09.101Z,102858.67
2018-02-24T21:35:35.032Z,102851.73
2018-02-24T21:38:01.724Z,102855.84
2018-02-24T21:40:27.823Z,102853.76
2018-02-24T21:42:53.714Z,102855.88
2018-02-24T21:45:19.642Z,102863.14
2018-02-24T21:47:45.568Z,102867.09
2018-02-24T21:50:11.439Z,102865.31
2018-02-24T21:52:37.310Z,102864.64
2018-02-24T21:55:03.244Z,102873.62
2018-02-24T21:57:29.139Z,102872.56
2018-02-24T21:59:55.043Z,102876.20
2018-02-24T22:02:20.975Z,102886.25
2018-02-24T22:04:46.862Z,102882.85
2018-02-24T22:07:12.726Z,102887.30
2018-02-24T22:09:38.640Z,102880.74
2018-02-24T22:12:04.534Z,102884.77
2018-02-24T22:14:30.437Z,102891.97
2018-02-24T22:16:56.390Z,102887.10
2018-02-24T22:19:22.301Z,102893.55
2018-02-24T22:21:48.172Z,102897.13
2018-02-24T22:24:14.105Z,102894.76
2018-02-24T22:26:40.016Z,102907.00
2018-02-24T22:29:05.883Z,102901.36
2018-02-24T22:31:31.813Z,102897.47
2018-02-24T22:33:57.678Z,102893.88
2018-02-24T22:36:23.565Z,102907.20
2018-02-24T22:38:49.498Z,102900.11
2018-02-24T22:41:15.475Z,102907.46
2018-02-24T22:43:41.726Z,102911.58
2018-02-24T22:46:07.713Z,102906.58
2018-02-24T22:51:45.351Z,102907.78
2018-02-24T22:54:11.332Z,102907.02
2018-02-24T22:56:37.303Z,102913.73
2018-02-24T22:59:03.332Z,102916.86
2018-02-24T23:01:29.369Z,102918.20
2018-02-24T23:03:55.859Z,102918.28
2018-02-24T23:06:22.023Z,102920.09
2018-02-24T23:08:48.264Z,102924.95
2018-02-24T23:11:14.522Z,102928.97
2018-02-24T23:13:41.244Z,102929.48
2018-02-24T23:16:07.164Z,102932.19
2018-02-24T23:18:33.056Z,102938.86
2018-02-24T23:20:59.574Z,102931.70
2018-02-24T23:23:25.726Z,102938.89
2018-02-24T23:25:51.765Z,102936.27
2018-02-24T23:28:18.228Z,102931.08
2018-02-24T23:30:44.413Z,102934.77
2018-02-24T23:33:10.590Z,102930.58
2018-02-24T23:35:36.554Z,102936.27
2018-02-24T23:38:02.524Z,102930.67
2018-02-24T23:40:28.448Z,102926.45
2018-02-24T23:42:54.470Z,102928.08
2018-02-24T23:45:20.356Z,102926.32
2018-02-24T23:47:46.275Z,102927.73
2018-02-24T23:50:12.218Z,102925.42
2018-02-24T23:52:38.141Z,102911.08
2018-02-24T23:55:04.042Z,102921.01
2018-02-24T23:57:29.967Z,102913.00
2018-02-24T23:59:55.836Z,102906.70
